sensor_id;sensor_type;location;lat;lon;timestamp;pressure;altitude;pressure_sealevel;temperature;humidity
77216;BME280;66210;53.282;9.864;2024-01-15T00:02:02;98774.34;;;0.76;100.00
77216;BME280;66210;53.282;9.864;2024-01-15T00:04:29;98782.94;;;0.81;100.00
77216;BME280;66210;53.282;9.864;2024-01-15T00:06:56;98772.59;;;0.75;100.00
77216;BME280;66210;53.282;9.864;2024-01-15T00:09:23;98777.69;;;0.77;100.00
77216;BME280;66210;53.282;9.864;2024-01-15T00:11:50;98766.19;;;0.80;100.00
77216;BME280;66210;53.282;9.864;2024-01-15T00:14:17;98750.00;;;0.74;100.00
77216;BME280;66210;53.282;9.864;2024-01-15T00:16:47;98764.34;;;0.76;100.00
77216;BME280;66210;53.282;9.864;2024-01-15T00:19:15;98762.69;;;0.77;100.00
77216;BME280;66210;53.282;9.864;2024-01-15T00:21:42;98747.59;;;0.75;100.00
77216;BME280;66210;53.282;9.864;2024-01-15T00:24:10;98759.72;;;0.84;100.00
77216;BME280;66210;53.282;9.864;2024-01-15T00:26:37;98738.53;;;0.77;100.00
77216;BME280;66210;53.282;9.864;2024-01-15T00:29:04;98734.25;;;0.75;100.00
77216;BME280;66210;53.282;9.864;2024-01-15T00:31:31;98734.25;;;0.75;100.00
77216;BME280;66210;53.282;9.864;2024-01-15T00:33:57;98748.78;;;0.82;100.00
77216;BME280;66210;53.282;9.864;2024-01-15T00:36:25;98732.59;;;0.75;100.00
77216;BME280;66210;53.282;9.864;2024-01-15T00:38:51;98729.88;;;0.71;100.00
77216;BME280;66210;53.282;9.864;2024-01-15T00:41:18;98726.34;;;0.67;100.00
77216;BME280;66210;53.282;9.864;2024-01-15T00:43:45;98727.97;;;0.67;100.00
77216;BME280;66210;53.282;9.864;2024-01-15T00:46:12;98735.25;;;0.78;100.00
77216;BME280;66210;53.282;9.864;2024-01-15T00:48:39;98731.19;;;0.80;100.00
77216;BME280;66210;53.282;9.864;2024-01-15T00:51:05;98717.00;;;0.79;100.00
77216;BME280;66210;53.282;9.864;2024-01-15T00:53:32;98720.56;;;0.85;100.00
77216;BME280;66210;53.282;9.864;2024-01-15T00:55:59;98727.38;;;0.87;100.00
77216;BME280;66210;53.282;9.864;2024-01-15T00:58:26;98714.59;;;0.81;100.00
77216;BME280;66210;53.282;9.864;2024-01-15T01:00:52;98709.81;;;0.86;100.00
77216;BME280;66210;53.282;9.864;2024-01-15T01:03:19;98710.28;;;0.95;100.00
77216;BME280;66210;53.282;9.864;2024-01-15T01:05:50;98703.50;;;0.92;100.00
77216;BME280;66210;53.282;9.864;2024-01-15T01:08:17;98699.34;;;0.93;100.00
77216;BME280;66210;53.282;9.864;2024-01-15T01:10:43;98695.81;;;0.89;100.00
77216;BME280;66210;53.282;9.864;2024-01-15T01:13:10;98705.19;;;0.93;100.00
77216;BME280;66210;53.282;9.864;2024-01-15T01:15:36;98710.28;;;0.95;100.00
77216;BME280;66210;53.282;9.864;2024-01-15T01:18:04;98707.59;;;0.92;100.00
77216;BME280;66210;53.282;9.864;2024-01-15T01:20:31;98687.94;;;0.81;100.00
77216;BME280;66210;53.282;9.864;2024-01-15T01:22:58;98720.44;;;0.81;100.00
77216;BME280;66210;53.282;9.864;2024-01-15T01:25:24;98703.03;;;0.83;100.00
77216;BME280;66210;53.282;9.864;2024-01-15T01:27:51;98703.69;;;0.80;100.00
77216;BME280;66210;53.282;9.864;2024-01-15T01:30:17;98698.63;;;0.79;100.00
77216;BME280;66210;53.282;9.864;2024-01-15T01:32:44;98695.13;;;0.75;100.00
77216;BME280;66210;53.282;9.864;2024-01-15T01:35:12;98692.63;;;0.75;100.00
77216;BME280;66210;53.282;9.864;2024-01-15T01:37:39;98690.13;;;0.75;100.00
77216;BME280;66210;53.282;9.864;2024-01-15T01:40:06;98678.22;;;0.71;100.00
77216;BME280;66210;53.282;9.864;2024-01-15T01:42:33;98689.41;;;0.78;100.00
77216;BME280;66210;53.282;9.864;2024-01-15T01:44:59;98685.13;;;0.75;100.00
77216;BME280;66210;53.282;9.864;2024-01-15T01:47:26;98683.69;;;0.80;100.00
77216;BME280;66210;53.282;9.864;2024-01-15T01:49:53;98673.88;;;0.83;100.00
77216;BME280;66210;53.282;9.864;2024-01-15T01:52:21;98681.53;;;0.87;100.00
77216;BME280;66210;53.282;9.864;2024-01-15T01:54:48;98674.16;;;0.90;100.00
77216;BME280;66210;53.282;9.864;2024-01-15T01:57:15;98696.00;;;0.92;100.00
77216;BME280;66210;53.282;9.864;2024-01-15T01:59:42;98693.00;;;0.99;100.00
77216;BME280;66210;53.282;9.864;2024-01-15T02:02:09;98683.78;;;0.98;100.00
77216;BME280;66210;53.282;9.864;2024-01-15T02:04:36;98682.06;;;0.97;100.00
77216;BME280;66210;53.282;9.864;2024-01-15T02:07:03;98673.50;;;0.92;100.00
77216;BME280;66210;53.282;9.864;2024-01-15T02:09:30;98661.22;;;0.97;100.00
77216;BME280;66210;53.282;9.864;2024-01-15T02:11:58;98671.28;;;0.98;100.00
77216;BME280;66210;53.282;9.864;2024-01-15T02:14:25;98683.78;;;0.98;100.00
77216;BME280;66210;53.282;9.864;2024-01-15T02:16:52;98673.53;;;0.94;100.00
77216;BME280;66210;53.282;9.864;2024-01-15T02:19:18;98654.88;;;0.87;100.00
77216;BME280;66210;53.282;9.864;2024-01-15T02:21:45;98662.78;;;0.95;100.00
77216;BME280;66210;53.282;9.864;2024-01-15T02:24:12;98650.09;;;0.92;100.00
77216;BME280;66210;53.282;9.864;2024-01-15T02:26:39;98639.72;;;0.84;100.00
77216;BME280;66210;53.282;9.864;2024-01-15T02:29:09;98657.06;;;0.97;100.00
77216;BME280;66210;53.282;9.864;2024-01-15T02:31:37;98645.19;;;0.93;100.00
77216;BME280;66210;53.282;9.864;2024-01-15T02:34:04;98635.66;;;0.86;100.00
77216;BME280;66210;53.282;9.864;2024-01-15T02:36:31;98651.03;;;0.94;100.00
77216;BME280;66210;53.282;9.864;2024-01-15T02:38:58;98661.94;;;0.94;100.00
77216;BME280;66210;53.282;9.864;2024-01-15T02:41:25;98633.41;;;0.91;100.00
77216;BME280;66210;53.282;9.864;2024-01-15T02:43:52;98625.75;;;0.88;100.00
77216;BME280;66210;53.282;9.864;2024-01-15T02:46:19;98643.31;;;0.89;100.00
77216;BME280;66210;53.282;9.864;2024-01-15T02:48:46;98630.03;;;0.74;100.00
77216;BME280;66210;53.282;9.864;2024-01-15T02:51:13;98621.78;;;0.75;100.00
77216;BME280;66210;53.282;9.864;2024-01-15T02:53:39;98615.00;;;0.72;100.00
77216;BME280;66210;53.282;9.864;2024-01-15T02:56:07;98635.34;;;0.80;100.00
77216;BME280;66210;53.282;9.864;2024-01-15T02:58:34;98620.28;;;0.78;100.00
77216;BME280;66210;53.282;9.864;2024-01-15T03:01:00;98631.16;;;0.79;100.00
77216;BME280;66210;53.282;9.864;2024-01-15T03:03:27;98611.06;;;0.77;100.00
77216;BME280;66210;53.282;9.864;2024-01-15T03:05:54;98624.38;;;0.76;100.00
77216;BME280;66210;53.282;9.864;2024-01-15T03:08:21;98613.63;;;0.62;100.00
77216;BME280;66210;53.282;9.864;2024-01-15T03:10:49;98639.88;;;0.87;100.00
77216;BME280;66210;53.282;9.864;2024-01-15T03:13:16;98633.25;;;0.88;100.00
77216;BME280;66210;53.282;9.864;2024-01-15T03:15:43;98646.00;;;0.92;100.00
77216;BME280;66210;53.282;9.864;2024-01-15T03:18:09;98633.31;;;0.89;100.00
77216;BME280;66210;53.282;9.864;2024-01-15T03:20:37;98626.44;;;0.85;100.00
77216;BME280;66210;53.282;9.864;2024-01-15T03:23:03;98621.75;;;0.91;100.00
77216;BME280;66210;53.282;9.864;2024-01-15T03:25:30;98622.69;;;0.93;100.00
77216;BME280;66210;53.282;9.864;2024-01-15T03:27:56;98633.84;;;1.00;100.00
77216;BME280;66210;53.282;9.864;2024-01-15T03:30:23;98639.66;;;0.99;100.00
77216;BME280;66210;53.282;9.864;2024-01-15T03:32:50;98637.16;;;0.99;100.00
77216;BME280;66210;53.282;9.864;2024-01-15T03:35:16;98636.34;;;1.00;100.00
77216;BME280;66210;53.282;9.864;2024-01-15T03:37:43;98630.63;;;1.02;100.00
77216;BME280;66210;53.282;9.864;2024-01-15T03:40:10;98650.59;;;1.01;100.00
77216;BME280;66210;53.282;9.864;2024-01-15T03:42:37;98630.63;;;1.02;100.00
77216;BME280;66210;53.282;9.864;2024-01-15T03:45:04;98624.78;;;1.02;100.00
77216;BME280;66210;53.282;9.864;2024-01-15T03:47:31;98634.78;;;1.02;100.00
77216;BME280;66210;53.282;9.864;2024-01-15T03:49:58;98658.38;;;1.07;100.00
77216;BME280;66210;53.282;9.864;2024-01-15T03:52:24;98659.88;;;1.03;100.00
77216;BME280;66210;53.282;9.864;2024-01-15T03:54:51;98659.88;;;1.03;100.00
77216;BME280;66210;53.282;9.864;2024-01-15T03:57:18;98655.72;;;1.04;100.00
77216;BME280;66210;53.282;9.864;2024-01-15T03:59:44;98663.22;;;1.04;100.00
77216;BME280;66210;53.282;9.864;2024-01-15T04:02:13;98670.59;;;1.01;100.00
77216;BME280;66210;53.282;9.864;2024-01-15T04:04:42;98677.53;;;1.07;100.00
77216;BME280;66210;53.282;9.864;2024-01-15T04:07:09;98658.22;;;1.04;100.00
77216;BME280;66210;53.282;9.864;2024-01-15T04:09:36;98666.59;;;1.04;100.00
77216;BME280;66210;53.282;9.864;2024-01-15T04:12:03;98680.50;;;0.99;100.00
77216;BME280;66210;53.282;9.864;2024-01-15T04:14:30;98668.72;;;0.97;100.00
77216;BME280;66210;53.282;9.864;2024-01-15T04:16:56;98677.16;;;0.99;100.00
77216;BME280;66210;53.282;9.864;2024-01-15T04:19:23;98695.66;;;1.02;100.00
77216;BME280;66210;53.282;9.864;2024-01-15T04:21:50;98683.72;;;0.97;100.00
77216;BME280;66210;53.282;9.864;2024-01-15T04:24:16;98697.94;;;0.98;100.00
77216;BME280;66210;53.282;9.864;2024-01-15T04:26:45;98685.44;;;0.98;100.00
77216;BME280;66210;53.282;9.864;2024-01-15T04:29:11;98682.06;;;0.97;100.00
77216;BME280;66210;53.282;9.864;2024-01-15T04:31:38;98679.72;;;1.00;100.00
77216;BME280;66210;53.282;9.864;2024-01-15T04:34:05;98681.22;;;0.97;100.00
77216;BME280;66210;53.282;9.864;2024-01-15T04:36:31;98671.34;;;1.00;100.00
77216;BME280;66210;53.282;9.864;2024-01-15T04:38:58;98666.34;;;1.00;100.00
77216;BME280;66210;53.282;9.864;2024-01-15T04:41:25;98678.16;;;1.02;100.00
77216;BME280;66210;53.282;9.864;2024-01-15T04:43:51;98679.88;;;1.03;100.00
77216;BME280;66210;53.282;9.864;2024-01-15T04:46:18;98676.50;;;1.03;100.00
77216;BME280;66210;53.282;9.864;2024-01-15T04:48:45;98680.97;;;1.09;100.00
77216;BME280;66210;53.282;9.864;2024-01-15T04:51:12;98679.31;;;1.09;100.00
77216;BME280;66210;53.282;9.864;2024-01-15T04:53:39;98678.56;;;1.10;100.00
77216;BME280;66210;53.282;9.864;2024-01-15T04:56:05;98677.63;;;1.08;100.00
77216;BME280;66210;53.282;9.864;2024-01-15T04:58:32;98673.38;;;1.07;100.00
77216;BME280;66210;53.282;9.864;2024-01-15T05:00:59;98671.81;;;1.09;100.00
77216;BME280;66210;53.282;9.864;2024-01-15T05:03:26;98674.22;;;1.08;100.00
77216;BME280;66210;53.282;9.864;2024-01-15T05:05:53;98668.47;;;1.09;100.00
77216;BME280;66210;53.282;9.864;2024-01-15T05:08:20;98672.63;;;1.08;100.00
77216;BME280;66210;53.282;9.864;2024-01-15T05:10:47;98669.44;;;0.94;100.00
77216;BME280;66210;53.282;9.864;2024-01-15T05:13:15;98680.97;;;1.09;100.00
77216;BME280;66210;53.282;9.864;2024-01-15T05:15:42;98674.09;;;1.04;100.00
77216;BME280;66210;53.282;9.864;2024-01-15T05:18:09;98676.50;;;1.03;100.00
77216;BME280;66210;53.282;9.864;2024-01-15T05:20:36;98677.31;;;1.02;100.00
77216;BME280;66210;53.282;9.864;2024-01-15T05:23:03;98658.50;;;0.92;100.00
77216;BME280;66210;53.282;9.864;2024-01-15T05:25:29;98639.97;;;0.89;100.00
77216;BME280;66210;53.282;9.864;2024-01-15T05:27:56;98666.44;;;1.01;100.00
77216;BME280;66210;53.282;9.864;2024-01-15T05:30:23;98674.78;;;1.02;100.00
77216;BME280;66210;53.282;9.864;2024-01-15T05:32:50;98671.22;;;0.97;100.00
77216;BME280;66210;53.282;9.864;2024-01-15T05:35:17;98661.84;;;0.93;100.00
77216;BME280;66210;53.282;9.864;2024-01-15T05:37:45;98672.69;;;0.93;100.00
77216;BME280;66210;53.282;9.864;2024-01-15T05:40:12;98668.41;;;0.91;100.00
77216;BME280;66210;53.282;9.864;2024-01-15T05:42:39;98666.00;;;0.92;100.00
77216;BME280;66210;53.282;9.864;2024-01-15T05:45:06;98662.84;;;0.96;100.00
77216;BME280;66210;53.282;9.864;2024-01-15T05:47:33;98680.50;;;0.99;100.00
77216;BME280;66210;53.282;9.864;2024-01-15T05:50:01;98659.25;;;0.91;100.00
77216;BME280;66210;53.282;9.864;2024-01-15T05:52:28;98661.22;;;0.97;100.00
77216;BME280;66210;53.282;9.864;2024-01-15T05:54:54;98667.91;;;0.98;100.00
77216;BME280;66210;53.282;9.864;2024-01-15T05:57:21;98660.91;;;0.91;100.00
77216;BME280;66210;53.282;9.864;2024-01-15T05:59:47;98678.84;;;1.00;100.00
77216;BME280;66210;53.282;9.864;2024-01-15T06:02:15;98667.78;;;0.95;100.00
77216;BME280;66210;53.282;9.864;2024-01-15T06:04:41;98673.94;;;1.01;100.00
77216;BME280;66210;53.282;9.864;2024-01-15T06:07:08;98675.59;;;1.01;100.00
77216;BME280;66210;53.282;9.864;2024-01-15T06:09:35;98679.19;;;1.06;100.00
77216;BME280;66210;53.282;9.864;2024-01-15T06:12:02;98674.66;;;0.99;100.00
77216;BME280;66210;53.282;9.864;2024-01-15T06:14:28;98680.59;;;1.01;100.00
77216;BME280;66210;53.282;9.864;2024-01-15T06:16:55;98676.59;;;1.04;100.00
77216;BME280;66210;53.282;9.864;2024-01-15T06:19:22;98683.09;;;1.01;100.00
77216;BME280;66210;53.282;9.864;2024-01-15T06:21:49;98691.69;;;1.06;100.00
77216;BME280;66210;53.282;9.864;2024-01-15T06:24:15;98690.66;;;1.02;100.00
77216;BME280;66210;53.282;9.864;2024-01-15T06:26:46;98689.94;;;1.05;100.00
77216;BME280;66210;53.282;9.864;2024-01-15T06:29:13;98687.44;;;1.05;100.00
77216;BME280;66210;53.282;9.864;2024-01-15T06:31:39;98690.25;;;1.11;100.00
77216;BME280;66210;53.282;9.864;2024-01-15T06:34:06;98680.13;;;1.08;100.00
77216;BME280;66210;53.282;9.864;2024-01-15T06:36:33;98691.06;;;1.10;100.00
77216;BME280;66210;53.282;9.864;2024-01-15T06:39:00;98705.19;;;1.10;100.00
77216;BME280;66210;53.282;9.864;2024-01-15T06:41:26;98694.94;;;1.05;100.00
77216;BME280;66210;53.282;9.864;2024-01-15T06:43:53;98691.38;;;1.00;100.00
77216;BME280;66210;53.282;9.864;2024-01-15T06:46:20;98698.00;;;0.99;100.00
77216;BME280;66210;53.282;9.864;2024-01-15T06:48:47;98691.22;;;0.97;100.00
77216;BME280;66210;53.282;9.864;2024-01-15T06:51:15;98694.88;;;1.03;100.00
77216;BME280;66210;53.282;9.864;2024-01-15T06:53:42;98687.16;;;0.99;100.00
77216;BME280;66210;53.282;9.864;2024-01-15T06:56:09;98680.50;;;0.99;100.00
77216;BME280;66210;53.282;9.864;2024-01-15T06:58:35;98670.09;;;0.92;100.00
77216;BME280;66210;53.282;9.864;2024-01-15T07:01:02;98698.72;;;0.97;100.00
77216;BME280;66210;53.282;9.864;2024-01-15T07:03:29;98697.69;;;0.93;100.00
77216;BME280;66210;53.282;9.864;2024-01-15T07:05:55;98701.75;;;0.91;100.00
77216;BME280;66210;53.282;9.864;2024-01-15T07:08:22;98706.00;;;0.92;100.00
77216;BME280;66210;53.282;9.864;2024-01-15T07:10:50;98700.81;;;0.89;100.00
77216;BME280;66210;53.282;9.864;2024-01-15T07:13:16;98711.59;;;0.88;100.00
77216;BME280;66210;53.282;9.864;2024-01-15T07:15:43;98702.22;;;0.84;100.00
77216;BME280;66210;53.282;9.864;2024-01-15T07:18:09;98687.84;;;0.80;100.00
77216;BME280;66210;53.282;9.864;2024-01-15T07:20:36;98715.09;;;0.92;100.00
77216;BME280;66210;53.282;9.864;2024-01-15T07:23:03;98705.66;;;0.86;100.00
77216;BME280;66210;53.282;9.864;2024-01-15T07:25:30;98695.56;;;0.85;100.00
77216;BME280;66210;53.282;9.864;2024-01-15T07:27:57;98715.75;;;0.88;100.00
77216;BME280;66210;53.282;9.864;2024-01-15T07:30:23;98723.16;;;0.86;100.00
77216;BME280;66210;53.282;9.864;2024-01-15T07:32:50;98713.06;;;0.85;100.00
77216;BME280;66210;53.282;9.864;2024-01-15T07:35:17;98710.53;;;0.83;100.00
77216;BME280;66210;53.282;9.864;2024-01-15T07:37:44;98718.06;;;0.85;100.00
77216;BME280;66210;53.282;9.864;2024-01-15T07:40:11;98730.91;;;0.91;100.00
77216;BME280;66210;53.282;9.864;2024-01-15T07:42:38;98744.09;;;0.88;100.00
77216;BME280;66210;53.282;9.864;2024-01-15T07:45:05;98761.75;;;0.91;100.00
77216;BME280;66210;53.282;9.864;2024-01-15T07:47:32;98754.16;;;0.90;100.00
77216;BME280;66210;53.282;9.864;2024-01-15T07:49:59;98762.59;;;0.92;100.00
77216;BME280;66210;53.282;9.864;2024-01-15T07:52:31;98771.66;;;0.90;100.00
77216;BME280;66210;53.282;9.864;2024-01-15T07:54:58;98754.25;;;0.75;100.00
77216;BME280;66210;53.282;9.864;2024-01-15T07:57:29;98765.44;;;0.81;100.00
77216;BME280;66210;53.282;9.864;2024-01-15T07:59:56;98755.25;;;0.78;100.00
77216;BME280;66210;53.282;9.864;2024-01-15T08:02:23;98748.31;;;0.73;100.00
77216;BME280;66210;53.282;9.864;2024-01-15T08:04:49;98750.56;;;0.68;100.00
77216;BME280;66210;53.282;9.864;2024-01-15T08:07:16;98748.19;;;0.55;100.00
77216;BME280;66210;53.282;9.864;2024-01-15T08:09:45;98759.88;;;0.56;100.00
77216;BME280;66210;53.282;9.864;2024-01-15T08:12:14;98755.78;;;0.56;100.00
77216;BME280;66210;53.282;9.864;2024-01-15T08:14:40;98760.84;;;0.58;100.00
77216;BME280;66210;53.282;9.864;2024-01-15T08:17:07;98750.00;;;0.57;100.00
77216;BME280;66210;53.282;9.864;2024-01-15T08:19:34;98744.13;;;0.57;100.00
77216;BME280;66210;53.282;9.864;2024-01-15T08:22:00;98737.59;;;0.59;100.00
77216;BME280;66210;53.282;9.864;2024-01-15T08:24:27;98745.78;;;0.56;100.00
77216;BME280;66210;53.282;9.864;2024-01-15T08:26:55;98729.66;;;0.51;100.00
77216;BME280;66210;53.282;9.864;2024-01-15T08:29:22;98734.91;;;0.56;100.00
77216;BME280;66210;53.282;9.864;2024-01-15T08:31:50;98739.91;;;0.56;100.00
77216;BME280;66210;53.282;9.864;2024-01-15T08:34:17;98742.25;;;0.53;100.00
77216;BME280;66210;53.282;9.864;2024-01-15T08:36:44;98737.00;;;0.48;100.00
77216;BME280;66210;53.282;9.864;2024-01-15T08:39:11;98740.53;;;0.52;100.00
77216;BME280;66210;53.282;9.864;2024-01-15T08:41:38;98747.41;;;0.56;100.00
77216;BME280;66210;53.282;9.864;2024-01-15T08:44:04;98753.34;;;0.58;100.00
77216;BME280;66210;53.282;9.864;2024-01-15T08:46:31;98752.56;;;0.59;100.00
77216;BME280;66210;53.282;9.864;2024-01-15T08:48:58;98756.03;;;0.61;100.00
77216;BME280;66210;53.282;9.864;2024-01-15T08:51:24;98761.63;;;0.57;100.00
77216;BME280;66210;53.282;9.864;2024-01-15T08:53:51;98770.22;;;0.62;100.00
77216;BME280;66210;53.282;9.864;2024-01-15T08:56:18;98772.63;;;0.60;100.00
77216;BME280;66210;53.282;9.864;2024-01-15T08:58:45;98776.78;;;0.60;100.00
77216;BME280;66210;53.282;9.864;2024-01-15T09:01:13;98780.31;;;0.64;100.00
77216;BME280;66210;53.282;9.864;2024-01-15T09:03:40;98764.88;;;0.56;100.00
77216;BME280;66210;53.282;9.864;2024-01-15T09:06:10;98759.75;;;0.53;100.00
77216;BME280;66210;53.282;9.864;2024-01-15T09:08:37;98777.06;;;0.50;100.00
77216;BME280;66210;53.282;9.864;2024-01-15T09:11:04;98781.88;;;0.47;100.00
77216;BME280;66210;53.282;9.864;2024-01-15T09:13:30;98775.09;;;0.44;100.00
77216;BME280;66210;53.282;9.864;2024-01-15T09:15:58;98768.28;;;0.41;100.00
77216;BME280;66210;53.282;9.864;2024-01-15T09:18:34;98778.69;;;0.49;100.00
77216;BME280;66210;53.282;9.864;2024-01-15T09:21:03;98778.44;;;0.45;100.00
77216;BME280;66210;53.282;9.864;2024-01-15T09:23:30;98771.75;;;0.44;100.00
77216;BME280;66210;53.282;9.864;2024-01-15T09:25:56;98767.34;;;0.39;100.00
77216;BME280;66210;53.282;9.864;2024-01-15T09:28:23;98769.09;;;0.40;100.00
77216;BME280;66210;53.282;9.864;2024-01-15T09:30:49;98787.13;;;0.51;100.00
77216;BME280;66210;53.282;9.864;2024-01-15T09:33:16;98776.19;;;0.49;100.00
77216;BME280;66210;53.282;9.864;2024-01-15T09:35:43;98779.72;;;0.53;100.00
77216;BME280;66210;53.282;9.864;2024-01-15T09:38:10;98771.91;;;0.47;100.00
77216;BME280;66210;53.282;9.864;2024-01-15T09:40:38;98785.53;;;0.52;100.00
77216;BME280;66210;53.282;9.864;2024-01-15T09:43:05;98782.47;;;0.57;100.00
77216;BME280;66210;53.282;9.864;2024-01-15T09:45:32;98785.91;;;0.59;100.00
77216;BME280;66210;53.282;9.864;2024-01-15T09:47:58;98779.88;;;0.56;100.00
77216;BME280;66210;53.282;9.864;2024-01-15T09:50:25;98796.72;;;0.58;100.00
77216;BME280;66210;53.282;9.864;2024-01-15T09:52:54;98793.41;;;0.59;100.00
77216;BME280;66210;53.282;9.864;2024-01-15T09:55:21;98801.06;;;0.62;100.00
77216;BME280;66210;53.282;9.864;2024-01-15T09:57:48;98808.50;;;0.61;100.00
77216;BME280;66210;53.282;9.864;2024-01-15T10:00:18;98807.81;;;0.64;100.00
77216;BME280;66210;53.282;9.864;2024-01-15T10:02:47;98816.25;;;0.66;100.00
77216;BME280;66210;53.282;9.864;2024-01-15T10:05:14;98824.59;;;0.66;100.00
77216;BME280;66210;53.282;9.864;2024-01-15T10:07:42;98801.59;;;0.57;100.00
77216;BME280;66210;53.282;9.864;2024-01-15T10:10:10;98804.38;;;0.47;100.00
77216;BME280;66210;53.282;9.864;2024-01-15T10:12:37;98808.63;;;0.48;100.00
77216;BME280;66210;53.282;9.864;2024-01-15T10:15:05;98808.75;;;0.51;100.00
77216;BME280;66210;53.282;9.864;2024-01-15T10:17:32;98809.47;;;0.48;100.00
77216;BME280;66210;53.282;9.864;2024-01-15T10:19:59;98817.75;;;0.47;100.00
77216;BME280;66210;53.282;9.864;2024-01-15T10:22:25;98826.16;;;0.49;100.00
77216;BME280;66210;53.282;9.864;2024-01-15T10:24:52;98809.22;;;0.44;100.00
77216;BME280;66210;53.282;9.864;2024-01-15T10:27:19;98804.91;;;0.41;100.00
77216;BME280;66210;53.282;9.864;2024-01-15T10:29:46;98809.31;;;0.45;100.00
77216;BME280;66210;53.282;9.864;2024-01-15T10:32:12;98804.97;;;0.43;100.00
77216;BME280;66210;53.282;9.864;2024-01-15T10:34:40;98822.56;;;0.44;100.00
77216;BME280;66210;53.282;9.864;2024-01-15T10:37:09;98817.31;;;0.39;100.00
77216;BME280;66210;53.282;9.864;2024-01-15T10:39:36;98819.91;;;0.41;100.00
77216;BME280;66210;53.282;9.864;2024-01-15T10:42:04;98813.88;;;0.37;100.00
77216;BME280;66210;53.282;9.864;2024-01-15T10:44:30;98809.97;;;0.43;100.00
77216;BME280;66210;53.282;9.864;2024-01-15T10:46:57;98825.91;;;0.45;100.00
77216;BME280;66210;53.282;9.864;2024-01-15T10:49:24;98813.41;;;0.45;100.00
77216;BME280;66210;53.282;9.864;2024-01-15T10:51:58;98817.75;;;0.47;100.00
77216;BME280;66210;53.282;9.864;2024-01-15T10:54:26;98826.25;;;0.51;100.00
77216;BME280;66210;53.282;9.864;2024-01-15T10:56:55;98808.78;;;0.36;100.00
77216;BME280;66210;53.282;9.864;2024-01-15T10:59:22;98820.06;;;0.44;100.00
77216;BME280;66210;53.282;9.864;2024-01-15T11:01:51;98819.22;;;0.44;100.00
77216;BME280;66210;53.282;9.864;2024-01-15T11:04:21;98825.91;;;0.45;100.00
77216;BME280;66210;53.282;9.864;2024-01-15T11:06:51;98828.91;;;0.54;100.00
77216;BME280;66210;53.282;9.864;2024-01-15T11:09:20;98828.84;;;0.52;100.00
77216;BME280;66210;53.282;9.864;2024-01-15T11:11:47;98831.59;;;0.57;100.00
77216;BME280;66210;53.282;9.864;2024-01-15T11:14:33;98831.50;;;0.55;100.00
77216;BME280;66210;53.282;9.864;2024-01-15T11:16:59;98803.13;;;0.38;100.00
77216;BME280;66210;53.282;9.864;2024-01-15T11:19:35;98819.63;;;0.51;100.00
77216;BME280;66210;53.282;9.864;2024-01-15T11:22:03;98824.94;;;0.57;100.00
77216;BME280;66210;53.282;9.864;2024-01-15T11:24:34;98835.03;;;0.59;100.00
77216;BME280;66210;53.282;9.864;2024-01-15T11:27:05;98824.00;;;0.55;100.00
77216;BME280;66210;53.282;9.864;2024-01-15T11:29:34;98833.41;;;0.59;100.00
77216;BME280;66210;53.282;9.864;2024-01-15T11:32:03;98831.94;;;0.63;100.00
77216;BME280;66210;53.282;9.864;2024-01-15T11:34:57;98836.00;;;0.61;100.00
77216;BME280;66210;53.282;9.864;2024-01-15T11:40:18;98827.88;;;0.65;100.00
77216;BME280;66210;53.282;9.864;2024-01-15T11:42:46;98821.25;;;0.66;100.00
77216;BME280;66210;53.282;9.864;2024-01-15T11:45:19;98822.59;;;0.60;100.00
77216;BME280;66210;53.282;9.864;2024-01-15T11:48:17;60394.31;;;0.65;79.20
77216;BME280;66210;53.282;9.864;2024-01-15T11:50:47;98842.19;;;0.68;100.00
77216;BME280;66210;53.282;9.864;2024-01-15T11:53:32;98835.53;;;0.68;100.00
77216;BME280;66210;53.282;9.864;2024-01-15T11:56:03;98823.56;;;0.62;100.00
77216;BME280;66210;53.282;9.864;2024-01-15T11:58:32;98830.19;;;0.62;100.00
77216;BME280;66210;53.282;9.864;2024-01-15T12:00:59;98830.09;;;0.60;100.00
77216;BME280;66210;53.282;9.864;2024-01-15T12:03:26;98833.31;;;0.58;100.00
77216;BME280;66210;53.282;9.864;2024-01-15T12:05:53;98829.84;;;0.56;100.00
77216;BME280;66210;53.282;9.864;2024-01-15T12:08:22;98841.75;;;0.60;100.00
77216;BME280;66210;53.282;9.864;2024-01-15T12:10:49;98842.28;;;0.54;100.00
77216;BME280;66210;53.282;9.864;2024-01-15T12:13:16;98827.91;;;0.50;100.00
77216;BME280;66210;53.282;9.864;2024-01-15T12:15:46;98850.97;;;0.61;100.00
77216;BME280;66210;53.282;9.864;2024-01-15T12:18:15;98836.69;;;0.58;100.00
77216;BME280;66210;53.282;9.864;2024-01-15T12:20:43;98846.28;;;0.67;100.00
77216;BME280;66210;53.282;9.864;2024-01-15T12:23:10;98830.66;;;0.55;100.00
77216;BME280;66210;53.282;9.864;2024-01-15T12:25:38;104223.03;;;0.54;98.49
77216;BME280;66210;53.282;9.864;2024-01-15T12:28:05;98820.31;;;0.49;100.00
77216;BME280;66210;53.282;9.864;2024-01-15T12:30:33;98821.25;;;0.51;100.00
77216;BME280;66210;53.282;9.864;2024-01-15T12:33:04;98809.31;;;0.45;100.00
77216;BME280;66210;53.282;9.864;2024-01-15T12:35:33;98815.41;;;0.50;100.00
77216;BME280;66210;53.282;9.864;2024-01-15T12:38:00;98848.78;;;0.67;100.00
77216;BME280;66210;53.282;9.864;2024-01-15T12:40:31;98809.22;;;0.44;100.00
77216;BME280;66210;53.282;9.864;2024-01-15T12:42:58;98841.13;;;0.64;100.00
77216;BME280;66210;53.282;9.864;2024-01-15T12:45:25;98834.59;;;0.66;100.00
77216;BME280;66210;53.282;9.864;2024-01-15T12:47:52;98824.50;;;0.65;100.00
77216;BME280;66210;53.282;9.864;2024-01-15T12:50:19;98824.34;;;0.61;100.00
77216;BME280;66210;53.282;9.864;2024-01-15T12:52:47;98823.03;;;0.68;100.00
77216;BME280;66210;53.282;9.864;2024-01-15T12:55:14;98859.72;;;0.84;100.00
77216;BME280;66210;53.282;9.864;2024-01-15T12:57:42;98839.69;;;0.68;100.00
77216;BME280;66210;53.282;9.864;2024-01-15T13:00:09;98846.63;;;0.73;100.00
77216;BME280;66210;53.282;9.864;2024-01-15T13:02:41;98862.31;;;0.86;100.00
77216;BME280;66210;53.282;9.864;2024-01-15T13:05:09;98838.78;;;0.67;100.00